Time;durP1;ratioP1;P1;durP2;ratioP2;P2;SDS_P1;SDS_P2;PMS_P1;PMS_P2;Temp;Humidity;BMP_temperature;BMP_pressure;BME280_temperature;BME280_humidity;BME280_pressure;Samples;Min_cycle;Max_cycle;Signal;HPM_P1;HPM_P2
2022/03/21 00:01:56;;;;;;;80.03;54.53;;;;;;;;;;5033335;28;20977;-68
2022/03/21 00:04:22;;;;;;;82.68;54.53;;;;;;;;;;4992220;28;20499;-68
2022/03/21 00:06:48;;;;;;;79.18;54.53;;;;;;;;;;5000626;28;20437;-68
2022/03/21 00:09:14;;;;;;;77.75;53.60;;;;;;;;;;5008605;28;20772;-68
2022/03/21 00:11:40;;;;;;;85.72;55.75;;;4.90;99.90;;;;;;5006992;28;20792;-68
2022/03/21 00:14:06;;;;;;;82.33;55.37;;;;;;;;;;5032645;28;20508;-68
2022/03/21 00:16:32;;;;;;;84.30;55.35;;;;;;;;;;5026357;28;20461;-68
2022/03/21 00:19:00;;;;;;;81.72;56.03;;;;;;;;;;5045085;28;20437;-68
2022/03/21 00:21:26;;;;;;;82.57;55.83;;;;;;;;;;5005418;28;20464;-68
2022/03/21 00:23:52;;;;;;;79.68;53.60;;;;;;;;;;5007274;28;20541;-68
2022/03/21 00:26:18;;;;;;;80.65;54.50;;;;;;;;;;5000796;28;20433;-68
2022/03/21 00:28:44;;;;;;;80.47;55.30;;;;;;;;;;4994417;28;20424;-68
2022/03/21 00:31:10;;;;;;;82.80;55.17;;;;;;;;;;5010326;28;20437;-68
2022/03/21 00:33:36;;;;;;;80.20;54.10;;;;;;;;;;5004896;28;20434;-68
2022/03/21 00:36:05;;;;;;;78.90;55.22;;;;;;;;;;5012652;28;20429;-68
2022/03/21 00:38:31;;;;;;;83.82;55.05;;;;;;;;;;5014655;28;20429;-68
2022/03/21 00:40:57;;;;;;;84.47;56.00;;;4.50;99.90;;;;;;5040991;28;20636;-68
2022/03/21 00:43:24;;;;;;;79.22;54.80;;;;;;;;;;5002317;28;20515;-68
2022/03/21 00:45:52;;;;;;;83.35;56.55;;;;;;;;;;4983683;28;20444;-68
2022/03/21 00:48:18;;;;;;;79.22;55.67;;;;;;;;;;5012742;28;20417;-68
2022/03/21 00:50:45;;;;;;;83.20;56.03;;;;;;;;;;5004458;28;20434;-68
2022/03/21 00:53:11;;;;;;;82.43;56.35;;;;;;;;;;5023277;28;20416;-68
2022/03/21 00:55:37;;;;;;;83.90;56.63;;;4.90;99.90;;;;;;5003892;28;20444;-68
2022/03/21 00:58:03;;;;;;;81.00;53.93;;;;;;;;;;4999703;28;20529;-68
2022/03/21 01:00:30;;;;;;;84.13;55.83;;;;;;;;;;4996974;28;20433;-68
2022/03/21 01:02:57;;;;;;;83.40;56.03;;;;;;;;;;5004440;28;20424;-68
2022/03/21 01:05:26;;;;;;;84.07;55.72;;;4.70;99.90;;;;;;4998306;28;20436;-68
2022/03/21 01:07:52;;;;;;;83.65;56.20;;;;;;;;;;4990662;28;20486;-68
2022/03/21 01:10:19;;;;;;;87.63;56.70;;;;;;;;;;5005657;28;20434;-68
2022/03/21 01:12:46;;;;;;;86.57;57.33;;;;;;;;;;4996619;28;20792;-68
2022/03/21 01:15:14;;;;;;;87.90;57.10;;;;;;;;;;4990441;28;20827;-68
2022/03/21 01:17:42;;;;;;;86.95;56.58;;;;;;;;;;4998741;28;20425;-68
2022/03/21 01:20:08;;;;;;;92.40;57.20;;;;;;;;;;5008862;28;20429;-67
2022/03/21 01:22:34;;;;;;;85.95;56.67;;;;;;;;;;5010321;28;20417;-67
2022/03/21 01:25:00;;;;;;;86.43;56.70;;;;;;;;;;5007576;28;20460;-67
2022/03/21 01:27:26;;;;;;;88.85;57.42;;;;;;;;;;4992935;28;20487;-68
2022/03/21 01:29:52;;;;;;;93.20;58.30;;;;;;;;;;5011653;28;20442;-68
2022/03/21 01:32:18;;;;;;;88.63;57.05;;;;;;;;;;5011208;28;20429;-68
2022/03/21 01:34:44;;;;;;;89.25;56.83;;;;;;;;;;5008654;28;20984;-68
2022/03/21 01:37:11;;;;;;;88.13;56.60;;;;;;;;;;4999213;28;20779;-68
2022/03/21 01:39:37;;;;;;;87.03;56.57;;;;;;;;;;4990869;28;20426;-68
2022/03/21 01:42:03;;;;;;;84.88;54.40;;;;;;;;;;4999729;28;20827;-68
2022/03/21 01:44:29;;;;;;;83.45;55.50;;;;;;;;;;5004484;28;20450;-68
2022/03/21 01:46:55;;;;;;;85.63;56.22;;;;;;;;;;4986098;28;20836;-68
2022/03/21 01:49:21;;;;;;;85.07;54.47;;;;;;;;;;5006045;28;20448;-68
2022/03/21 01:51:47;;;;;;;84.03;55.22;;;;;;;;;;5003585;28;20503;-68
2022/03/21 01:56:59;;;;;;;86.05;56.92;;;;;;;;;;5002501;28;20436;-68
2022/03/21 01:59:26;;;;;;;90.78;57.17;;;;;;;;;;5011337;28;20425;-67
2022/03/21 02:01:52;;;;;;;88.00;57.20;;;4.20;99.90;;;;;;5012216;28;20448;-68
2022/03/21 02:04:18;;;;;;;91.47;57.63;;;;;;;;;;4999249;28;20464;-68
2022/03/21 02:06:45;;;;;;;91.68;58.08;;;;;;;;;;5006407;28;20800;-68
2022/03/21 02:09:11;;;;;;;94.85;58.92;;;;;;;;;;5005956;28;20421;-68
2022/03/21 02:11:37;;;;;;;89.88;56.70;;;;;;;;;;4996892;28;20443;-68
2022/03/21 02:14:05;;;;;;;90.30;55.97;;;;;;;;;;5001830;28;20917;-68
2022/03/21 02:16:31;;;;;;;89.72;57.30;;;;;;;;;;5032036;28;20425;-68
2022/03/21 02:19:21;;;;;;;91.38;56.40;;;;;;;;;;5010958;28;20428;-66
2022/03/21 02:21:48;;;;;;;90.37;56.57;;;;;;;;;;5012100;28;20445;-67
2022/03/21 02:24:22;;;;;;;91.17;57.03;;;;;;;;;;4998186;28;20597;-67
2022/03/21 02:26:49;;;;;;;88.55;55.10;;;;;;;;;;5000224;28;20433;-67
2022/03/21 02:29:16;;;;;;;89.55;54.80;;;;;;;;;;5002659;28;20983;-67
2022/03/21 02:31:43;;;;;;;87.45;54.80;;;;;;;;;;5009471;28;20425;-68
2022/03/21 02:34:09;;;;;;;89.60;56.30;;;;;;;;;;5010382;28;20490;-67
2022/03/21 02:36:37;;;;;;;93.75;57.35;;;3.60;99.90;;;;;;5002144;28;20452;-67
2022/03/21 02:39:03;;;;;;;93.77;57.17;;;;;;;;;;5005929;28;20421;-68
2022/03/21 02:41:29;;;;;;;90.93;55.22;;;;;;;;;;5008812;28;20570;-67
2022/03/21 02:43:56;;;;;;;91.00;56.45;;;;;;;;;;5011469;28;20425;-67
2022/03/21 02:46:22;;;;;;;86.40;54.42;;;;;;;;;;5002164;28;20433;-67
2022/03/21 02:48:49;;;;;;;92.85;55.67;;;;;;;;;;5000881;28;20412;-67
2022/03/21 02:51:16;;;;;;;94.55;54.70;;;;;;;;;;5002735;28;20435;-67
2022/03/21 02:53:43;;;;;;;90.82;55.25;;;3.80;99.90;;;;;;5009303;28;20497;-67
2022/03/21 02:56:09;;;;;;;95.85;56.85;;;;;;;;;;4997612;28;21042;-67
2022/03/21 02:58:36;;;;;;;94.30;55.28;;;;;;;;;;4991840;28;20499;-67
2022/03/21 03:01:14;;;;;;;100.20;57.83;;;3.70;99.90;;;;;;5010026;28;20908;-66
2022/03/21 03:03:40;;;;;;;117.75;60.92;;;;;;;;;;5005720;28;20474;-67
2022/03/21 03:06:06;;;;;;;95.30;57.03;;;;;;;;;;5015809;28;20429;-67
2022/03/21 03:08:33;;;;;;;93.90;56.90;;;;;;;;;;5002129;28;20434;-67
2022/03/21 03:10:59;;;;;;;91.85;56.05;;;;;;;;;;4999873;28;20425;-67
2022/03/21 03:13:25;;;;;;;95.93;56.33;;;3.60;99.90;;;;;;5010149;28;20538;-67
2022/03/21 03:15:52;;;;;;;88.68;54.30;;;;;;;;;;4992598;28;20438;-67
2022/03/21 03:18:18;;;;;;;246.13;70.47;;;;;;;;;;5002406;28;20432;-67
2022/03/21 03:20:48;;;;;;;87.10;51.87;;;;;;;;;;5006215;28;20446;-66
2022/03/21 03:23:14;;;;;;;90.57;51.93;;;;;;;;;;5006816;28;20437;-67
2022/03/21 03:25:40;;;;;;;83.20;48.22;;;;;;;;;;5002007;28;20427;-67
2022/03/21 03:28:07;;;;;;;76.53;45.85;;;;;;;;;;5011319;28;20432;-67
2022/03/21 03:30:35;;;;;;;74.63;43.80;;;;;;;;;;5003004;28;20425;-67
2022/03/21 03:33:01;;;;;;;71.05;41.95;;;;;;;;;;4994722;28;20436;-67
2022/03/21 03:35:28;;;;;;;109.28;47.95;;;;;;;;;;5001213;28;20425;-66
2022/03/21 03:37:54;;;;;;;71.80;40.38;;;;;;;;;;5010628;28;20439;-67
2022/03/21 03:40:21;;;;;;;61.60;38.88;;;;;;;;;;5010491;28;20531;-67
2022/03/21 03:42:47;;;;;;;66.22;39.85;;;;;;;;;;5007704;28;20445;-67
2022/03/21 03:45:14;;;;;;;67.80;39.17;;;;;;;;;;5004174;28;20458;-67
2022/03/21 03:47:41;;;;;;;62.37;37.10;;;;;;;;;;5012350;28;20466;-68
2022/03/21 03:50:07;;;;;;;64.78;37.78;;;;;;;;;;5005655;28;21779;-67
2022/03/21 03:52:33;;;;;;;67.93;38.05;;;;;;;;;;5009162;28;20440;-67
2022/03/21 03:55:00;;;;;;;61.95;37.47;;;;;;;;;;5008901;28;20428;-67
2022/03/21 03:57:26;;;;;;;60.55;36.35;;;;;;;;;;4998423;28;20432;-68
2022/03/21 03:59:52;;;;;;;58.97;35.30;;;;;;;;;;5014146;28;20450;-67
2022/03/21 04:02:18;;;;;;;58.45;35.10;;;;;;;;;;5007327;28;20441;-68
2022/03/21 04:04:45;;;;;;;60.83;34.77;;;;;;;;;;4986944;28;20471;-68
2022/03/21 04:07:11;;;;;;;61.95;35.40;;;;;;;;;;5005442;28;20418;-67
2022/03/21 04:09:37;;;;;;;60.97;35.03;;;;;;;;;;4999928;28;20435;-67
2022/03/21 04:12:04;;;;;;;65.10;35.55;;;;;;;;;;5012909;28;20439;-68
2022/03/21 04:14:30;;;;;;;60.00;35.45;;;;;;;;;;4997288;28;20439;-67
2022/03/21 04:16:56;;;;;;;61.30;35.92;;;;;;;;;;4988155;28;20417;-67
2022/03/21 04:19:22;;;;;;;64.30;36.65;;;;;;;;;;5001673;28;20478;-68
2022/03/21 04:21:49;;;;;;;61.30;37.03;;;;;;;;;;5011125;28;20851;-67
2022/03/21 04:24:15;;;;;;;65.88;36.00;;;;;;;;;;5008784;28;20924;-67
2022/03/21 04:26:41;;;;;;;57.85;35.15;;;;;;;;;;5001643;28;20434;-67
2022/03/21 04:29:07;;;;;;;65.65;36.70;;;;;;;;;;5007092;28;20420;-66
2022/03/21 04:31:33;;;;;;;67.30;36.35;;;;;;;;;;5001940;28;20421;-67
2022/03/21 04:34:00;;;;;;;71.72;37.78;;;;;;;;;;5008247;28;20512;-68
2022/03/21 04:36:27;;;;;;;67.05;37.65;;;;;;;;;;4990668;28;20488;-67
2022/03/21 04:38:54;;;;;;;73.00;37.80;;;;;;;;;;5010590;28;20440;-66
2022/03/21 04:41:20;;;;;;;65.13;36.15;;;;;;;;;;4996379;28;20444;-66
2022/03/21 04:43:46;;;;;;;63.22;35.53;;;;;;;;;;5001330;28;20429;-66
2022/03/21 04:46:13;;;;;;;66.07;36.38;;;;;;;;;;4998792;28;20436;-66
2022/03/21 04:48:39;;;;;;;70.03;36.50;;;;;;;;;;5004751;28;20808;-67
2022/03/21 04:51:05;;;;;;;67.63;36.67;;;;;;;;;;4993912;28;20456;-67
2022/03/21 04:53:31;;;;;;;63.28;35.70;;;;;;;;;;4992481;28;20433;-67
2022/03/21 04:55:58;;;;;;;65.90;35.63;;;;;;;;;;5009541;28;20515;-67
2022/03/21 04:58:24;;;;;;;71.03;37.05;;;;;;;;;;5004429;28;20423;-66
2022/03/21 05:00:50;;;;;;;75.47;36.53;;;;;;;;;;5006683;28;20513;-67
2022/03/21 05:03:16;;;;;;;72.88;37.63;;;;;;;;;;5000608;28;22288;-67
2022/03/21 05:05:42;;;;;;;77.20;38.07;;;;;;;;;;4989897;28;20436;-66
2022/03/21 05:08:08;;;;;;;72.20;37.33;;;;;;;;;;5006927;28;20426;-67
2022/03/21 05:10:35;;;;;;;72.00;38.55;;;;;;;;;;4999351;28;20826;-67
2022/03/21 05:13:01;;;;;;;79.55;39.20;;;;;;;;;;5022933;28;20409;-67
2022/03/21 05:15:27;;;;;;;66.55;35.33;;;;;;;;;;5008122;28;20442;-67
2022/03/21 05:17:53;;;;;;;62.10;33.60;;;;;;;;;;4999576;28;20738;-68
2022/03/21 05:20:20;;;;;;;64.18;34.13;;;;;;;;;;5007516;28;20952;-68
2022/03/21 05:31:05;;;;;;;58.28;32.00;;;;;;;;;;4999350;28;20425;-67
2022/03/21 05:36:38;;;;;;;51.77;31.07;;;;;;;;;;5003630;28;20425;-68
2022/03/21 05:39:04;;;;;;;57.97;32.70;;;;;;;;;;5007568;28;20448;-67
2022/03/21 05:41:30;;;;;;;57.13;31.80;;;;;;;;;;5003940;28;20445;-67
2022/03/21 05:43:56;;;;;;;56.15;31.42;;;;;;;;;;4997626;28;20435;-67
2022/03/21 05:46:23;;;;;;;51.78;30.10;;;;;;;;;;4993914;28;20440;-67
2022/03/21 05:48:58;;;;;;;58.25;31.20;;;;;;;;;;4992172;28;20439;-67
2022/03/21 05:51:36;;;;;;;63.65;33.15;;;2.60;99.90;;;;;;4989585;28;20439;-67
2022/03/21 05:54:09;;;;;;;63.13;33.40;;;;;;;;;;4995218;28;20433;-67
2022/03/21 05:56:35;;;;;;;58.17;33.13;;;;;;;;;;5002297;28;20440;-68
2022/03/21 06:01:46;;;;;;;59.85;31.85;;;;;;;;;;5006749;28;20508;-67
2022/03/21 06:04:13;;;;;;;62.10;32.63;;;;;;;;;;4992595;28;20412;-68
2022/03/21 06:06:39;;;;;;;55.38;31.35;;;;;;;;;;5010784;28;20444;-68
2022/03/21 06:09:05;;;;;;;59.85;32.30;;;;;;;;;;4986425;28;20947;-68
2022/03/21 06:11:31;;;;;;;118.35;38.97;;;;;;;;;;4997693;28;20449;-68
2022/03/21 06:13:57;;;;;;;56.67;31.13;;;;;;;;;;5006226;28;20425;-67
2022/03/21 06:16:23;;;;;;;56.67;31.40;;;;;;;;;;5011278;28;20454;-68
2022/03/21 06:18:49;;;;;;;49.30;29.73;;;;;;;;;;4995607;28;20439;-67
2022/03/21 06:21:16;;;;;;;55.38;30.67;;;;;;;;;;5008713;28;20433;-68
2022/03/21 06:23:42;;;;;;;51.08;30.10;;;;;;;;;;4990211;28;20433;-68
2022/03/21 06:26:08;;;;;;;53.00;29.80;;;;;;;;;;4998878;28;20604;-67
2022/03/21 06:28:35;;;;;;;54.90;29.90;;;;;;;;;;5036925;28;20478;-67
2022/03/21 06:31:02;;;;;;;57.10;30.73;;;;;;;;;;5012033;28;20436;-67
2022/03/21 06:33:29;;;;;;;54.47;29.90;;;;;;;;;;4998400;28;20414;-67
2022/03/21 06:35:55;;;;;;;47.90;29.50;;;;;;;;;;5011412;28;20439;-67
2022/03/21 06:38:22;;;;;;;45.17;26.95;;;;;;;;;;5004385;28;20781;-68
2022/03/21 06:40:48;;;;;;;41.47;26.63;;;;;;;;;;4999998;28;20935;-68
2022/03/21 06:43:20;;;;;;;37.20;24.63;;;;;;;;;;5007311;28;20439;-68
2022/03/21 06:45:52;;;;;;;36.17;23.67;;;;;;;;;;4991107;28;20719;-68
2022/03/21 06:48:19;;;;;;;34.33;22.92;;;;;;;;;;4992363;28;20431;-69
2022/03/21 06:50:46;;;;;;;37.90;23.97;;;;;;;;;;5006803;28;20428;-68
2022/03/21 06:53:12;;;;;;;45.17;28.75;;;;;;;;;;4989878;28;20482;-68
2022/03/21 06:55:38;;;;;;;55.30;33.67;;;;;;;;;;5032938;28;20438;-69
2022/03/21 06:58:06;;;;;;;48.05;30.17;;;;;;;;;;5006834;28;20791;-68
2022/03/21 07:00:32;;;;;;;42.40;28.67;;;;;;;;;;5008572;28;20499;-69
2022/03/21 07:02:58;;;;;;;47.25;29.45;;;;;;;;;;5003347;28;20443;-68
2022/03/21 07:05:26;;;;;;;45.03;29.85;;;;;;;;;;5009794;28;20425;-69
2022/03/21 07:07:52;;;;;;;44.33;30.08;;;;;;;;;;4991277;28;20506;-67
2022/03/21 07:10:18;;;;;;;42.97;27.73;;;;;;;;;;4996971;28;20421;-68
2022/03/21 07:12:44;;;;;;;46.72;29.38;;;;;;;;;;4968507;28;20418;-68
2022/03/21 07:15:10;;;;;;;46.30;29.63;;;;;;;;;;4987855;28;20470;-68
2022/03/21 07:17:36;;;;;;;45.97;28.92;;;;;;;;;;4970473;28;20482;-69
2022/03/21 07:20:06;;;;;;;41.38;28.50;;;;;;;;;;5038266;28;20456;-69
2022/03/21 07:22:32;;;;;;;42.83;27.92;;;;;;;;;;5002101;28;20474;-69
2022/03/21 07:24:58;;;;;;;39.30;28.27;;;;;;;;;;5002913;28;20491;-70
2022/03/21 07:27:24;;;;;;;43.50;28.60;;;;;;;;;;5008083;28;20436;-69
2022/03/21 07:29:50;;;;;;;39.05;27.00;;;;;;;;;;5004406;28;20433;-69
2022/03/21 07:32:17;;;;;;;38.50;26.45;;;;;;;;;;5002403;28;20439;-69
2022/03/21 07:34:43;;;;;;;38.30;26.85;;;;;;;;;;4994478;28;20458;-68
2022/03/21 07:37:12;;;;;;;37.10;26.38;;;;;;;;;;5028288;28;20444;-68
2022/03/21 07:39:39;;;;;;;38.90;25.60;;;;;;;;;;5009807;28;20485;-68
2022/03/21 07:42:07;;;;;;;39.72;26.25;;;;;;;;;;4965886;28;21150;-68
2022/03/21 07:47:20;;;;;;;34.70;24.30;;;;;;;;;;4993491;28;20447;-69
2022/03/21 07:49:50;;;;;;;31.88;22.48;;;;;;;;;;4994860;28;20634;-69
2022/03/21 07:52:18;;;;;;;33.42;23.30;;;;;;;;;;5032356;28;20445;-69
2022/03/21 07:54:44;;;;;;;30.03;21.90;;;;;;;;;;5006900;28;20515;-68
2022/03/21 07:57:10;;;;;;;33.00;23.60;;;;;;;;;;4987634;28;20516;-68
2022/03/21 07:59:37;;;;;;;32.28;22.83;;;;;;;;;;5010665;28;20459;-68
2022/03/21 08:02:05;;;;;;;32.90;22.13;;;;;;;;;;4987288;28;20429;-69
2022/03/21 08:04:31;;;;;;;32.30;22.77;;;;;;;;;;4985868;28;20476;-68
2022/03/21 08:06:59;;;;;;;31.05;22.80;;;;;;;;;;4999691;28;20421;-69
2022/03/21 08:09:27;;;;;;;31.77;22.02;;;;;;;;;;5040502;28;20435;-68
2022/03/21 08:11:54;;;;;;;30.75;21.48;;;;;;;;;;5007485;28;20421;-68
2022/03/21 08:14:20;;;;;;;32.45;21.08;;;;;;;;;;4987888;28;21049;-68
2022/03/21 08:16:46;;;;;;;33.00;23.27;;;;;;;;;;4994699;28;20436;-69
2022/03/21 08:19:13;;;;;;;34.38;22.05;;;;;;;;;;5011395;28;20425;-69
2022/03/21 08:21:39;;;;;;;32.65;21.63;;;;;;;;;;5009409;28;20437;-69
2022/03/21 08:24:06;;;;;;;35.00;22.50;;;;;;;;;;5001762;28;20429;-69
2022/03/21 08:26:35;;;;;;;33.85;22.02;;;;;;;;;;4988640;28;20446;-69
2022/03/21 08:29:01;;;;;;;35.63;23.52;;;8.90;99.90;;;;;;5000697;28;20428;-69
2022/03/21 08:31:28;;;;;;;32.72;22.52;;;;;;;;;;4982440;28;20436;-70
2022/03/21 08:33:54;;;;;;;34.13;24.10;;;9.20;99.90;;;;;;4985698;28;20494;-69
2022/03/21 08:36:19;;;;;;;34.25;22.77;;;9.30;99.90;;;;;;5016253;28;20449;-69
2022/03/21 08:38:47;;;;;;;33.67;23.30;;;;;;;;;;4981383;28;20480;-69
2022/03/21 08:41:13;;;;;;;31.83;22.35;;;;;;;;;;5010806;28;20519;-69
2022/03/21 08:43:41;;;;;;;31.33;22.15;;;;;;;;;;4994893;28;20454;-70
2022/03/21 08:46:07;;;;;;;32.42;22.33;;;;;;;;;;4992871;28;20432;-69
2022/03/21 08:51:19;;;;;;;27.75;21.15;;;;;;;;;;4978216;28;20488;-71
2022/03/21 08:53:45;;;;;;;31.50;21.92;;;;;;;;;;5003823;28;20500;-69
2022/03/21 08:56:11;;;;;;;29.43;21.30;;;;;;;;;;5008174;28;20437;-68
2022/03/21 08:58:37;;;;;;;30.15;22.05;;;;;;;;;;4999576;28;20829;-69
2022/03/21 09:01:03;;;;;;;32.22;21.50;;;;;;;;;;4996722;28;20442;-67
2022/03/21 09:03:29;;;;;;;29.93;21.60;;;;;;;;;;5006255;28;20429;-69
2022/03/21 09:05:55;;;;;;;32.65;21.13;;;;;;;;;;5035679;28;20959;-69
2022/03/21 09:08:21;;;;;;;29.92;20.80;;;;;;;;;;4982510;28;20428;-69
2022/03/21 09:10:48;;;;;;;30.23;21.33;;;;;;;;;;4995624;28;20450;-69
2022/03/21 09:13:15;;;;;;;30.27;21.40;;;;;;;;;;4999431;28;20443;-70
2022/03/21 09:15:41;;;;;;;31.43;21.70;;;;;;;;;;4991259;28;20431;-69
2022/03/21 09:18:07;;;;;;;31.10;22.13;;;;;;;;;;5003427;28;20846;-69
2022/03/21 09:20:34;;;;;;;31.85;21.83;;;;;;;;;;4991917;28;20425;-69
2022/03/21 09:22:59;;;;;;;30.83;21.80;;;11.70;99.90;;;;;;4990071;28;20434;-70
2022/03/21 09:25:25;;;;;;;30.00;20.75;;;;;;;;;;5002956;28;20475;-69
2022/03/21 09:27:51;;;;;;;30.80;21.93;;;;;;;;;;4987663;28;20665;-69
2022/03/21 09:30:17;;;;;;;31.40;21.17;;;;;;;;;;4990211;28;20784;-69
2022/03/21 09:32:44;;;;;;;31.35;21.63;;;;;;;;;;5001122;28;20428;-69
2022/03/21 09:35:10;;;;;;;31.25;21.63;;;;;;;;;;5000131;28;20426;-70
2022/03/21 09:37:36;;;;;;;30.45;21.88;;;;;;;;;;5005451;28;20433;-70
2022/03/21 09:40:05;;;;;;;31.73;21.83;;;;;;;;;;4990537;28;20440;-68
2022/03/21 09:42:33;;;;;;;29.55;21.48;;;;;;;;;;4990331;28;20643;-69
2022/03/21 09:45:00;;;;;;;30.75;21.20;;;;;;;;;;5000025;28;20482;-69
2022/03/21 09:50:12;;;;;;;30.48;21.10;;;;;;;;;;5005660;28;20914;-70
2022/03/21 09:52:38;;;;;;;28.55;20.85;;;;;;;;;;4988553;28;20409;-70
2022/03/21 09:55:05;;;;;;;27.60;20.08;;;;;;;;;;4988895;28;20444;-70
2022/03/21 09:57:31;;;;;;;27.80;20.00;;;;;;;;;;4986390;28;20435;-69
2022/03/21 09:59:58;;;;;;;27.08;20.27;;;;;;;;;;5011133;28;20442;-70
2022/03/21 10:02:27;;;;;;;26.67;19.23;;;;;;;;;;4989763;28;20445;-69
2022/03/21 10:04:53;;;;;;;27.65;18.98;;;13.00;99.90;;;;;;5024842;28;20555;-70
2022/03/21 10:07:26;;;;;;;26.27;19.13;;;;;;;;;;4992396;28;20912;-70
2022/03/21 10:10:07;;;;;;;25.30;18.10;;;;;;;;;;4988429;28;20951;-70
2022/03/21 10:12:33;;;;;;;27.88;19.48;;;;;;;;;;5032533;28;20481;-69
2022/03/21 10:14:59;;;;;;;23.60;18.77;;;;;;;;;;4995778;28;20431;-72
2022/03/21 10:17:25;;;;;;;25.23;18.08;;;13.70;99.90;;;;;;4997619;28;20436;-70
2022/03/21 10:19:54;;;;;;;24.90;16.42;;;;;;;;;;4997544;28;20978;-70
2022/03/21 10:22:37;;;;;;;23.37;17.20;;;;;;;;;;4999176;28;20433;-70
2022/03/21 10:25:07;;;;;;;22.25;16.25;;;;;;;;;;4975458;28;20442;-70
2022/03/21 10:27:33;;;;;;;22.42;17.40;;;;;;;;;;4995270;28;20860;-69
2022/03/21 10:30:02;;;;;;;24.67;17.65;;;;;;;;;;4987734;28;20436;-69
2022/03/21 10:32:32;;;;;;;25.05;17.88;;;;;;;;;;5003186;28;20436;-70
2022/03/21 10:35:02;;;;;;;26.13;18.20;;;;;;;;;;4990065;28;20674;-69
2022/03/21 10:37:40;;;;;;;25.48;18.00;;;;;;;;;;4998037;28;20472;-68
2022/03/21 10:40:15;;;;;;;25.55;16.98;;;;;;;;;;4994519;28;20863;-69
2022/03/21 10:42:57;;;;;;;22.42;16.45;;;;;;;;;;4994276;28;20444;-69
2022/03/21 10:45:24;;;;;;;22.88;17.15;;;;;;;;;;5000813;28;20451;-69
2022/03/21 10:47:53;;;;;;;22.70;16.63;;;;;;;;;;4995437;28;20520;-69
2022/03/21 10:50:30;;;;;;;23.13;16.50;;;;;;;;;;5006438;28;20443;-69
2022/03/21 10:53:06;;;;;;;22.48;15.88;;;;;;;;;;4998062;28;20425;-69
2022/03/21 10:55:32;;;;;;;22.33;15.80;;;;;;;;;;4993380;28;20441;-70
2022/03/21 10:57:58;;;;;;;21.13;15.90;;;;;;;;;;4983754;28;20428;-70
2022/03/21 11:00:31;;;;;;;23.13;16.30;;;;;;;;;;5030477;28;20432;-70
2022/03/21 11:02:59;;;;;;;22.52;15.60;;;;;;;;;;4970070;28;20447;-69
2022/03/21 11:05:26;;;;;;;24.17;16.63;;;;;;;;;;4989620;28;21390;-70
2022/03/21 11:07:56;;;;;;;22.38;16.50;;;;;;;;;;5008412;28;20430;-70
2022/03/21 11:10:23;;;;;;;21.88;16.70;;;;;;;;;;4994037;28;20460;-69
2022/03/21 11:12:49;;;;;;;24.03;16.53;;;;;;;;;;4991037;28;20512;-68
2022/03/21 11:15:16;;;;;;;22.30;16.25;;;;;;;;;;4982104;28;20500;-71
2022/03/21 11:17:43;;;;;;;22.40;17.15;;;;;;;;;;4981219;28;20474;-71
2022/03/21 11:20:25;;;;;;;22.03;16.53;;;;;;;;;;5025849;28;20429;-77
2022/03/21 11:22:55;;;;;;;24.17;16.93;;;;;;;;;;4998013;28;20474;-70
2022/03/21 11:25:22;;;;;;;23.17;17.48;;;;;;;;;;4997964;28;20494;-70
2022/03/21 11:28:03;;;;;;;24.33;16.90;;;;;;;;;;5002088;28;20454;-72
2022/03/21 11:30:38;;;;;;;21.15;16.73;;;;;;;;;;4992726;28;20440;-71
2022/03/21 11:33:30;;;;;;;23.38;17.23;;;;;;;;;;5002452;28;20431;-70
2022/03/21 11:36:04;;;;;;;22.63;17.20;;;;;;;;;;4992787;28;20527;-70
2022/03/21 11:38:31;;;;;;;22.75;17.13;;;;;;;;;;4968006;28;20441;-70
2022/03/21 11:41:21;;;;;;;25.63;17.60;;;;;;;;;;5001446;28;20507;-70
2022/03/21 11:44:07;;;;;;;22.73;17.40;;;;;;;;;;5029082;28;20432;-71
2022/03/21 11:46:34;;;;;;;22.95;17.60;;;;;;;;;;4992463;28;20435;-70
2022/03/21 11:49:22;;;;;;;22.20;16.60;;;;;;;;;;4985548;28;20477;-70
2022/03/21 11:51:58;;;;;;;24.23;16.55;;;15.70;99.90;;;;;;5020180;28;20445;-71
2022/03/21 11:54:35;;;;;;;23.00;16.67;;;15.60;99.30;;;;;;4991919;28;20786;-69
2022/03/21 11:57:06;;;;;;;22.33;16.60;;;15.70;99.00;;;;;;4999197;28;20458;-70
2022/03/21 11:59:34;;;;;;;21.75;15.75;;;15.80;97.80;;;;;;5006112;28;20451;-70
2022/03/21 12:02:00;;;;;;;21.20;16.38;;;;;;;;;;5021030;28;20475;-70
2022/03/21 12:04:30;;;;;;;21.30;15.80;;;;;;;;;;5015965;28;20438;-70
2022/03/21 12:07:12;;;;;;;22.20;16.58;;;;;;;;;;5001344;28;20762;-69
2022/03/21 12:09:45;;;;;;;21.05;16.42;;;;;;;;;;5011558;28;20447;-71
2022/03/21 12:12:12;;;;;;;20.50;15.60;;;;;;;;;;4984353;28;20717;-70
2022/03/21 12:14:44;;;;;;;20.92;15.90;;;;;;;;;;5028667;28;20444;-69
2022/03/21 12:17:13;;;;;;;22.07;15.70;;;;;;;;;;5006530;28;20429;-71
2022/03/21 12:22:30;;;;;;;21.00;16.73;;;;;;;;;;5001339;28;20826;-70
2022/03/21 12:24:56;;;;;;;21.27;15.57;;;15.70;95.60;;;;;;4987087;28;20511;-70
2022/03/21 12:27:32;;;;;;;23.40;16.27;;;;;;;;;;4992084;28;20461;-70
2022/03/21 12:30:17;;;;;;;22.70;15.60;;;;;;;;;;5020653;28;20452;-70
2022/03/21 12:32:56;;;;;;;25.38;16.38;;;;;;;;;;4996798;28;20458;-69
2022/03/21 12:35:31;;;;;;;21.83;16.00;;;;;;;;;;5001925;28;20452;-69
2022/03/21 12:38:11;;;;;;;20.02;14.93;;;;;;;;;;4994186;28;20553;-69
2022/03/21 12:40:50;;;;;;;19.02;15.05;;;;;;;;;;5005517;28;20447;-69
2022/03/21 12:43:17;;;;;;;21.83;15.55;;;;;;;;;;5032968;28;20440;-70
2022/03/21 12:45:49;;;;;;;20.77;15.18;;;17.50;92.50;;;;;;4995438;28;20456;-69
2022/03/21 12:48:17;;;;;;;19.77;15.50;;;;;;;;;;4992523;28;20433;-69
2022/03/21 12:50:43;;;;;;;18.60;14.93;;;;;;;;;;5032489;28;20497;-70
2022/03/21 12:53:11;;;;;;;19.40;15.32;;;17.60;92.70;;;;;;5006050;28;20448;-69
2022/03/21 12:55:38;;;;;;;19.08;15.57;;;;;;;;;;4996435;28;20441;-70
2022/03/21 12:58:08;;;;;;;22.05;15.73;;;;;;;;;;5029631;28;20466;-69
2022/03/21 13:00:38;;;;;;;20.45;15.43;;;17.60;92.00;;;;;;4991572;28;21037;-70
2022/03/21 13:03:14;;;;;;;19.90;15.52;;;;;;;;;;4966416;28;20434;-70
2022/03/21 13:11:25;;;;;;;20.70;15.33;;;;;;;;;;4983265;28;20442;-70
2022/03/21 13:13:53;;;;;;;18.70;15.10;;;18.50;90.90;;;;;;4994860;28;20437;-70
2022/03/21 13:16:24;;;;;;;21.08;15.50;;;18.30;90.30;;;;;;5002568;28;20821;-70
2022/03/21 13:18:50;;;;;;;23.35;14.98;;;;;;;;;;4991287;28;20445;-70
2022/03/21 13:21:18;;;;;;;19.55;13.93;;;19.00;87.80;;;;;;4988548;28;20551;-70
2022/03/21 13:23:45;;;;;;;18.60;14.13;;;19.30;87.10;;;;;;5002570;28;20420;-69
2022/03/21 13:26:24;;;;;;;18.17;13.60;;;19.30;86.20;;;;;;4998784;28;20808;-70
2022/03/21 13:28:50;;;;;;;17.20;13.10;;;20.00;86.80;;;;;;4977692;28;20458;-69
2022/03/21 13:31:21;;;;;;;19.65;13.70;;;;;;;;;;4986075;28;20440;-69
2022/03/21 13:33:52;;;;;;;17.87;13.43;;;;;;;;;;4995043;28;20467;-69
2022/03/21 13:36:19;;;;;;;20.40;14.80;;;;;;;;;;5007200;28;20459;-70
2022/03/21 13:38:45;;;;;;;21.10;14.50;;;;;;;;;;4982452;28;20479;-70
2022/03/21 13:41:15;;;;;;;20.27;14.68;;;;;;;;;;4983647;28;20451;-70
2022/03/21 13:43:43;;;;;;;19.80;14.48;;;;;;;;;;4999456;28;20502;-70
2022/03/21 13:46:09;;;;;;;21.48;14.40;;;17.90;90.50;;;;;;4980061;28;20442;-69
2022/03/21 13:48:42;;;;;;;19.90;14.68;;;;;;;;;;5005658;28;20444;-70
2022/03/21 13:51:16;;;;;;;22.75;14.98;;;;;;;;;;4992957;28;20605;-69
2022/03/21 13:53:42;;;;;;;20.17;13.98;;;;;;;;;;4999057;28;20435;-70
2022/03/21 13:56:08;;;;;;;22.73;14.68;;;16.60;90.60;;;;;;4989834;28;20445;-70
2022/03/21 13:58:36;;;;;;;21.10;14.50;;;;;;;;;;4992671;28;20417;-70
2022/03/21 14:01:02;;;;;;;24.63;14.73;;;;;;;;;;5000310;28;20425;-70
2022/03/21 14:03:38;;;;;;;21.98;15.35;;;;;;;;;;4992322;28;20439;-70
2022/03/21 14:06:05;;;;;;;21.55;13.90;;;;;;;;;;4990770;28;20474;-70
2022/03/21 14:08:31;;;;;;;22.27;15.67;;;;;;;;;;4990269;28;20620;-70
2022/03/21 14:11:05;;;;;;;20.92;14.82;;;;;;;;;;5003940;28;20440;-71
2022/03/21 14:13:33;;;;;;;23.30;14.30;;;;;;;;;;5001566;28;20434;-70
2022/03/21 14:16:00;;;;;;;21.93;14.03;;;;;;;;;;4993236;28;20465;-70
2022/03/21 14:18:34;;;;;;;19.10;13.98;;;;;;;;;;4984188;28;20458;-70
2022/03/21 14:21:01;;;;;;;20.40;14.53;;;;;;;;;;5000449;28;20463;-70
2022/03/21 14:23:28;;;;;;;20.15;14.68;;;;;;;;;;4974632;28;20462;-70
2022/03/21 14:26:41;;;;;;;20.97;14.47;;;;;;;;;;4995613;28;20472;-70
2022/03/21 14:28:41;;;;;;;20.02;14.20;;;;;;;;;;4989436;28;20437;-70
2022/03/21 14:31:07;;;;;;;23.08;14.75;;;;;;;;;;5044763;28;20490;-70
2022/03/21 14:33:33;;;;;;;19.75;14.57;;;;;;;;;;4995517;28;20435;-70
2022/03/21 14:36:05;;;;;;;23.00;15.77;;;;;;;;;;4984877;28;20741;-70
2022/03/21 14:38:31;;;;;;;22.60;15.23;;;;;;;;;;4990884;28;20450;-70
2022/03/21 14:40:58;;;;;;;19.67;15.13;;;;;;;;;;5016965;28;20438;-70
2022/03/21 14:43:25;;;;;;;21.98;15.00;;;;;;;;;;4991255;28;20484;-70
2022/03/21 14:45:55;;;;;;;19.83;15.15;;;;;;;;;;4988251;28;20906;-71